ADDS METAR Data INFO
IDs: Format: Raw Decoded Include TAF

Data at: 0030 UTC 15 Dec 2017

KSFO 142356Z 34004KT 10SM SCT200 17/06 A3008 RMK AO2 SLP186 T01720056 10178 20117 56005
KSFO 142256Z 00000KT 10SM SCT200 17/08 A3008 RMK AO2 SLP186 T01670083
KSFO 142156Z 04003KT 9SM FEW200 14/09 A3008 RMK AO2 SLP187 T01440089
KSFO 142056Z 36004KT 9SM CLR 14/09 A3009 RMK AO2 SLP190 T01390094 58013
KSFO 141956Z 03003KT 9SM CLR 13/08 A3011 RMK AO2 SLP194 T01330083
KSFO 141856Z 05004KT 9SM FEW200 12/08 A3012 RMK AO2 SLP200 T01220083
KSFO 141756Z 00000KT 9SM FEW200 12/08 A3013 RMK AO2 SLP203 T01170083 10117 20061 51016
KSFO 141656Z 00000KT 8SM FEW200 11/08 A3012 RMK AO2 SLP200 T01110083
KSFO 141556Z 00000KT 9SM FEW200 08/07 A3010 RMK AO2 SLP192 T00830067
KSFO 141456Z 00000KT 10SM FEW200 07/06 A3009 RMK AO2 SLP187 T00720056 53012
KSFO 141356Z 00000KT 10SM FEW200 07/04 A3007 RMK AO2 SLP182 T00720044
KSFO 141256Z 22004KT 10SM FEW200 07/04 A3006 RMK AO2 SLP178 T00670039
KSFO 141156Z 26003KT 10SM FEW200 07/04 A3005 RMK AO2 SLP176 T00670039 10111 20067 58006
KSFO 141056Z 00000KT 10SM FEW200 08/04 A3006 RMK AO2 SLP179 T00780044
KSFO 140956Z 19003KT 10SM FEW200 08/04 A3006 RMK AO2 SLP180 T00780039
KSFO 140856Z 00000KT 10SM FEW170 SCT200 10/06 A3007 RMK AO2 SLP181 T01000061 58002
KSFO 140756Z 25003KT 10SM FEW170 SCT200 10/06 A3007 RMK AO2 SLP182 T01000061 401610050
KSFO 140656Z 28003KT 8SM SCT200 11/09 A3008 RMK AO2 SLP184 T01060094
KSFO 140556Z 29007KT 10SM FEW200 11/09 A3007 RMK AO2 SLP183 T01110094 10144 20111 51003
KSFO 140456Z 30010KT 10SM FEW200 12/09 A3007 RMK AO2 SLP183 T01170094
KSFO 140356Z 29010KT 10SM FEW200 12/09 A3007 RMK AO2 SLP183 T01170089
KSFO 140256Z 28010KT 10SM CLR 12/07 A3007 RMK AO2 SLP181 T01220072 56001
KSFO 140156Z 29009KT 10SM FEW200 13/03 A3007 RMK AO2 SLP182 T01280028
KSFO 140056Z 00000KT 10SM SCT200 14/07 A3006 RMK AO2 SLP179 T01390072
KSFO 132356Z 00000KT 10SM SCT200 14/07 A3007 RMK AO2 SLP182 T01440067 10161 20111 56012
KSFO 132256Z 06003KT 10SM SCT200 14/09 A3007 RMK AO2 SLP182 T01440089
KSFO 132156Z 00000KT 10SM BKN200 15/07 A3008 RMK AO2 SLP186 T01500067
KSFO 132056Z 00000KT 9SM BKN200 13/08 A3010 RMK AO2 SLP194 T01330078 58024
KSFO 131956Z 00000KT 10SM BKN200 12/07 A3013 RMK AO2 SLP201 T01220072
KSFO 131856Z 07003KT 10SM FEW200 12/07 A3016 RMK AO2 SLP214 T01170067
KSFO 131756Z 00000KT 10SM FEW200 12/07 A3018 RMK AO2 SLP218 T01170067 10117 20056 50004
KSFO 131656Z 02006KT 10SM FEW200 11/07 A3018 RMK AO2 SLP218 T01060072
KSFO 131556Z 00000KT 10SM FEW200 08/06 A3017 RMK AO2 SLP215 T00830061
KSFO 131456Z 16006KT 10SM FEW200 08/06 A3016 RMK AO2 SLP214 T00830056 58001
KSFO 131356Z 36006KT 10SM FEW200 10/06 A3018 RMK AO2 SLP218 T01000061
KSFO 131256Z 02008KT 10SM FEW200 10/07 A3017 RMK AO2 SLP215 T01000067